createdAt,value
2018-08-19T00:20:43.696Z,21.64
2018-08-19T00:23:25.277Z,21.60
2018-08-19T00:26:08.381Z,21.57
2018-08-19T00:28:49.258Z,21.54
2018-08-19T00:31:29.280Z,21.51
2018-08-19T00:34:10.201Z,21.49
2018-08-19T00:36:49.501Z,21.46
2018-08-19T00:39:36.641Z,21.40
2018-08-19T00:42:17.019Z,21.33
2018-08-19T00:44:55.964Z,21.28
2018-08-19T00:47:36.118Z,21.26
2018-08-19T00:50:18.321Z,21.26
2018-08-19T00:52:59.206Z,21.20
2018-08-19T00:55:45.466Z,21.16
2018-08-19T00:58:28.179Z,21.08
2018-08-19T01:01:10.322Z,21.01
2018-08-19T01:03:59.597Z,20.95
2018-08-19T01:06:44.583Z,20.88
2018-08-19T01:09:25.321Z,20.85
2018-08-19T01:12:04.359Z,20.82
2018-08-19T01:14:43.604Z,20.79
2018-08-19T01:17:25.604Z,20.76
2018-08-19T01:20:10.304Z,20.73
2018-08-19T01:22:50.024Z,20.70
2018-08-19T01:25:28.938Z,20.68
2018-08-19T01:28:07.502Z,20.65
2018-08-19T01:30:45.825Z,20.61
2018-08-19T01:33:25.023Z,20.58
2018-08-19T01:36:04.123Z,20.55
2018-08-19T01:38:43.779Z,20.51
2018-08-19T01:41:21.947Z,20.43
2018-08-19T01:44:09.102Z,20.37
2018-08-19T01:46:51.307Z,20.30
2018-08-19T01:49:33.703Z,20.24
2018-08-19T01:52:13.866Z,20.17
2018-08-19T01:54:54.299Z,20.13
2018-08-19T01:57:42.417Z,20.10
2018-08-19T02:00:21.881Z,20.05
2018-08-19T02:03:10.479Z,19.97
2018-08-19T02:05:48.736Z,19.93
2018-08-19T02:08:29.419Z,19.90
2018-08-19T02:11:09.939Z,19.88
2018-08-19T02:13:49.662Z,19.85
2018-08-19T02:16:28.299Z,19.81
2018-08-19T02:19:07.742Z,19.78
2018-08-19T02:21:48.659Z,19.72
2018-08-19T03:30:02.809Z,18.70
2018-08-19T03:32:41.302Z,18.66
2018-08-19T03:35:21.300Z,18.64
2018-08-19T03:38:18.142Z,18.64
2018-08-19T03:40:58.220Z,18.66
2018-08-19T03:43:37.458Z,18.63
2018-08-19T03:46:25.119Z,18.60
2018-08-19T03:49:05.460Z,18.58
2018-08-19T03:51:44.063Z,18.54
2018-08-19T03:54:22.243Z,18.53
2018-08-19T03:57:01.120Z,18.52
2018-08-19T05:23:21.613Z,18.64
2018-08-19T05:26:00.912Z,18.70
2018-08-19T05:28:39.702Z,18.78
2018-08-19T05:31:18.656Z,18.86
2018-08-19T05:33:57.067Z,18.94
2018-08-19T05:36:42.654Z,19.03
2018-08-19T05:39:23.758Z,19.12
2018-08-19T05:42:15.615Z,19.22
2018-08-19T05:44:53.674Z,19.30
2018-08-19T05:47:33.653Z,19.39
2018-08-19T05:50:12.854Z,19.49
2018-08-19T05:52:54.034Z,19.58
2018-08-19T05:55:34.573Z,19.69
2018-08-19T05:58:13.112Z,19.81
2018-08-19T06:01:00.525Z,19.91
2018-08-19T06:03:43.090Z,20.03
2018-08-19T06:06:24.914Z,20.11
2018-08-19T06:09:06.472Z,20.20
2018-08-19T06:11:51.637Z,20.33
2018-08-19T06:14:32.281Z,20.46
2018-08-19T06:17:14.516Z,20.57
2018-08-19T06:19:57.656Z,20.70
2018-08-19T06:22:42.036Z,20.83
2018-08-19T06:25:22.035Z,20.92
2018-08-19T06:28:02.032Z,21.06
2018-08-19T06:30:40.677Z,21.18
2018-08-19T06:33:20.012Z,21.28
2018-08-19T06:35:59.032Z,21.43
2018-08-19T06:38:39.076Z,21.62
2018-08-19T06:41:23.441Z,21.84
2018-08-19T06:44:04.771Z,22.09
2018-08-19T06:46:44.109Z,22.34
2018-08-19T06:49:23.536Z,22.49
2018-08-19T06:52:02.456Z,22.60
2018-08-19T06:54:40.253Z,22.73
2018-08-19T06:57:19.130Z,22.85
2018-08-19T06:59:58.455Z,22.99
2018-08-19T07:02:40.396Z,23.08
2018-08-19T07:17:09.609Z,23.35
2018-08-19T07:19:50.256Z,23.41
2018-08-19T07:22:31.832Z,23.50
2018-08-19T07:25:13.815Z,23.60
2018-08-19T07:27:53.938Z,23.69
2018-08-19T07:30:35.014Z,23.80
2018-08-19T07:33:13.815Z,23.87
2018-08-19T07:35:51.569Z,23.97
2018-08-19T07:38:29.293Z,24.08
2018-08-19T07:41:07.018Z,24.20
2018-08-19T07:43:44.618Z,24.31
2018-08-19T07:46:23.677Z,24.44
2018-08-19T07:49:03.872Z,24.56
2018-08-19T07:51:42.199Z,24.66
2018-08-19T07:54:20.512Z,24.84
2018-08-19T07:56:59.614Z,24.98
2018-08-19T07:59:38.996Z,25.19
2018-08-19T08:02:17.629Z,25.36
2018-08-19T08:04:56.657Z,25.53
2018-08-19T08:07:37.360Z,25.74
2018-08-19T08:10:17.981Z,25.93
2018-08-19T08:13:06.332Z,26.18
2018-08-19T08:15:48.049Z,26.44
2018-08-19T08:18:25.911Z,26.79
2018-08-19T08:21:11.322Z,27.15
2018-08-19T08:23:54.032Z,27.51
2018-08-19T08:26:35.590Z,27.83
2018-08-19T08:29:13.825Z,28.08
2018-08-19T08:32:01.818Z,28.31
2018-08-19T08:34:43.796Z,28.51
2018-08-19T08:37:26.171Z,28.66
2018-08-19T08:40:09.681Z,28.82
2018-08-19T08:42:52.075Z,28.99
2018-08-19T09:33:10.715Z,30.52
2018-08-19T09:35:52.796Z,30.67
2018-08-19T10:17:22.191Z,32.53
2018-08-19T10:20:05.174Z,32.65
2018-08-19T10:22:47.337Z,32.77
2018-08-19T10:25:26.851Z,32.92
2018-08-19T10:28:08.016Z,32.94
2018-08-19T11:24:10.411Z,34.21
2018-08-19T11:26:54.879Z,34.36
2018-08-19T11:29:41.633Z,34.43
2018-08-19T11:32:28.474Z,34.46
2018-08-19T11:35:12.924Z,34.50
2018-08-19T11:37:53.058Z,34.60
2018-08-19T11:40:35.077Z,34.67
2018-08-19T11:43:18.340Z,34.77
2018-08-19T11:45:56.037Z,34.79
2018-08-19T11:48:38.676Z,34.83
2018-08-19T11:51:24.352Z,34.87
2018-08-19T11:54:04.773Z,34.90
2018-08-19T11:56:44.073Z,34.94
2018-08-19T11:59:26.438Z,34.98
2018-08-19T12:02:08.178Z,34.82
2018-08-19T12:04:49.380Z,34.29
2018-08-19T12:07:28.636Z,33.78
2018-08-19T12:10:06.729Z,33.68
2018-08-19T12:12:52.630Z,33.89
2018-08-19T12:15:32.656Z,34.17
2018-08-19T12:18:12.874Z,34.43
2018-08-19T12:20:52.696Z,34.66
2018-08-19T12:23:33.693Z,34.73
2018-08-19T12:26:19.089Z,34.70
2018-08-19T12:28:59.758Z,34.93
2018-08-19T13:10:13.875Z,35.88
2018-08-19T13:13:00.316Z,35.99
2018-08-19T13:15:45.596Z,36.12
2018-08-19T13:18:34.435Z,36.25
2018-08-19T13:21:24.433Z,36.31
2018-08-19T13:24:04.118Z,36.26
2018-08-19T13:26:52.675Z,36.24
2018-08-19T13:29:33.669Z,36.29
2018-08-19T13:32:15.580Z,36.18
2018-08-19T13:34:53.890Z,36.07
2018-08-19T13:37:39.156Z,36.10
2018-08-19T13:40:23.594Z,36.23
2018-08-19T13:43:05.384Z,36.32
2018-08-19T13:45:48.856Z,36.42
2018-08-19T13:48:27.339Z,36.39
2018-08-19T13:51:06.072Z,36.36
2018-08-19T13:53:45.654Z,36.10
2018-08-19T13:56:25.198Z,35.88
2018-08-19T13:59:04.018Z,35.65
2018-08-19T14:01:42.370Z,35.48
2018-08-19T14:04:20.387Z,35.42
2018-08-19T14:06:58.057Z,35.33
2018-08-19T14:09:38.438Z,35.21
2018-08-19T14:12:19.261Z,35.07
2018-08-19T14:15:00.279Z,35.13
2018-08-19T14:17:43.391Z,35.26
2018-08-19T14:20:24.656Z,35.37
2018-08-19T14:23:03.181Z,35.44
2018-08-19T14:25:44.676Z,35.51
2018-08-19T14:28:26.278Z,35.53
2018-08-19T14:31:06.317Z,35.54
2018-08-19T14:33:46.722Z,35.58
2018-08-19T14:36:28.535Z,35.62
2018-08-19T14:39:08.034Z,35.68
2018-08-19T14:41:46.076Z,35.70
2018-08-19T14:44:24.231Z,35.71
2018-08-19T14:47:02.633Z,35.77
2018-08-19T14:49:40.934Z,35.75
2018-08-19T14:52:18.706Z,35.69
2018-08-19T14:54:57.616Z,35.65
2018-08-19T15:00:35.039Z,35.53
2018-08-19T15:03:12.776Z,35.51
2018-08-19T15:06:01.493Z,35.52
2018-08-19T15:08:42.175Z,35.48
2018-08-19T15:11:22.750Z,35.45
2018-08-19T15:14:08.531Z,35.32
2018-08-19T15:16:53.036Z,35.25
2018-08-19T15:19:34.815Z,35.20
2018-08-19T15:22:19.179Z,35.17
2018-08-19T15:25:01.238Z,35.18
2018-08-19T15:27:46.257Z,35.09
2018-08-19T15:30:30.333Z,34.99
2018-08-19T15:33:14.221Z,34.92
2018-08-19T15:35:53.952Z,34.91
2018-08-19T15:38:32.475Z,34.93
2018-08-19T15:41:18.815Z,34.89
2018-08-19T15:44:01.089Z,34.79
2018-08-19T15:46:43.813Z,34.73
2018-08-19T15:49:27.096Z,34.68
2018-08-19T15:52:06.471Z,34.58
2018-08-19T15:54:50.618Z,34.49
2018-08-19T15:57:30.821Z,34.46
2018-08-19T16:00:11.452Z,34.38
2018-08-19T16:02:49.373Z,34.31
2018-08-19T16:05:32.455Z,34.23
2018-08-19T16:08:12.955Z,34.08
2018-08-19T16:10:53.634Z,34.00
2018-08-19T16:13:32.797Z,33.93
2018-08-19T16:16:17.650Z,33.90
2018-08-19T16:18:58.279Z,33.78
2018-08-19T16:21:36.549Z,33.65
2018-08-19T16:24:16.017Z,33.52
2018-08-19T16:26:55.954Z,33.42
2018-08-19T16:29:34.251Z,33.31
2018-08-19T16:32:12.636Z,33.20
2018-08-19T16:34:51.598Z,33.10
2018-08-19T16:37:29.187Z,32.99
2018-08-19T16:40:12.376Z,32.91
2018-08-19T16:42:52.930Z,32.80
2018-08-19T16:45:34.615Z,32.69
2018-08-19T16:48:19.750Z,32.63
2018-08-19T16:50:59.902Z,32.53
2018-08-19T16:53:40.253Z,32.49
2018-08-19T16:56:21.551Z,32.44
2018-08-19T16:59:02.332Z,32.31
2018-08-19T17:01:45.713Z,32.22
2018-08-19T17:04:27.656Z,32.14
2018-08-19T17:07:08.391Z,32.06
2018-08-19T17:09:49.906Z,31.97
2018-08-19T17:12:31.556Z,31.89
2018-08-19T17:15:12.455Z,31.79
2018-08-19T17:17:54.975Z,31.70
2018-08-19T17:20:36.876Z,31.59
2018-08-19T17:23:20.333Z,31.47
2018-08-19T17:26:01.398Z,31.35
2018-08-19T17:28:43.993Z,31.23
2018-08-19T17:31:27.194Z,31.12
2018-08-19T17:34:13.313Z,31.01
2018-08-19T17:36:56.014Z,30.93
2018-08-19T17:39:37.934Z,30.84
2018-08-19T17:42:17.797Z,30.75
2018-08-19T17:45:01.661Z,30.64
2018-08-19T17:47:41.171Z,30.53
2018-08-19T17:50:25.632Z,30.40
2018-08-19T17:53:09.168Z,30.28
2018-08-19T17:55:49.474Z,30.18
2018-08-19T17:58:31.059Z,30.04
2018-08-19T18:01:13.795Z,29.93
2018-08-19T18:03:56.751Z,29.80
2018-08-19T18:06:40.312Z,29.69
2018-08-19T18:09:22.335Z,29.58
2018-08-19T18:12:08.532Z,29.47
2018-08-19T18:14:48.841Z,29.34
2018-08-19T18:17:26.433Z,29.23
2018-08-19T18:20:10.193Z,29.13
2018-08-19T18:22:52.796Z,29.02
2018-08-19T18:25:35.179Z,28.90
2018-08-19T18:28:33.418Z,28.77
2018-08-19T18:31:15.297Z,28.64
2018-08-19T18:34:05.042Z,28.52
2018-08-19T18:36:44.512Z,28.39
2018-08-19T18:39:26.193Z,28.28
2018-08-19T18:42:06.051Z,28.19
2018-08-19T18:44:48.900Z,28.08
2018-08-19T18:47:31.897Z,27.96
2018-08-19T18:50:17.556Z,27.86
2018-08-19T18:53:00.250Z,27.75
2018-08-19T18:55:46.393Z,27.65
2018-08-19T18:58:25.090Z,27.54
2018-08-19T19:01:05.116Z,27.43
2018-08-19T19:03:45.660Z,27.35
2018-08-19T19:06:26.630Z,27.26
2018-08-19T19:09:07.092Z,27.15
2018-08-19T19:11:47.831Z,27.06
2018-08-19T19:14:31.072Z,26.97
2018-08-19T19:17:13.055Z,26.87
2018-08-19T19:19:54.695Z,26.78
2018-08-19T19:22:38.532Z,26.68
2018-08-19T19:25:21.051Z,26.57
2018-08-19T19:28:02.912Z,26.50
2018-08-19T19:30:43.927Z,26.44
2018-08-19T19:33:26.674Z,26.37
2018-08-19T19:36:09.875Z,26.28
2018-08-19T19:38:55.811Z,26.16
2018-08-19T19:41:37.716Z,26.01
2018-08-19T19:44:35.883Z,25.90
2018-08-19T19:47:17.919Z,25.79
2018-08-19T19:50:01.822Z,25.69
2018-08-19T19:52:54.299Z,25.58
2018-08-19T19:55:38.552Z,25.48
2018-08-19T19:58:20.149Z,25.41
2018-08-19T20:01:08.957Z,25.35
2018-08-19T20:03:59.255Z,25.25
2018-08-19T20:06:41.769Z,25.14
2018-08-19T21:54:05.380Z,22.49
2018-08-19T21:56:47.701Z,22.50
2018-08-19T21:59:29.520Z,22.55
2018-08-19T22:02:11.643Z,22.52
2018-08-19T22:04:54.557Z,22.48
2018-08-19T22:07:33.005Z,22.46
2018-08-19T22:10:13.454Z,22.42
2018-08-19T22:12:53.981Z,22.38
2018-08-19T22:15:42.555Z,22.34
2018-08-19T22:18:24.702Z,22.29
2018-08-19T22:21:36.658Z,22.25
2018-08-19T22:24:14.842Z,22.15
2018-08-19T22:26:58.157Z,22.08
2018-08-19T22:29:37.903Z,22.06
2018-08-19T22:32:18.080Z,22.04
2018-08-19T22:34:56.864Z,22.02
2018-08-19T22:37:35.837Z,21.98
